createdAt,value
2022-08-21T00:02:25.662Z,16.16
2022-08-21T00:04:57.649Z,16.16
2022-08-21T00:07:28.075Z,16.18
2022-08-21T00:09:56.784Z,16.20
2022-08-21T00:12:25.280Z,16.20
2022-08-21T00:14:57.065Z,16.17
2022-08-21T00:17:26.450Z,16.17
2022-08-21T00:19:54.712Z,16.20
2022-08-21T00:22:23.003Z,16.25
2022-08-21T00:24:52.621Z,16.15
2022-08-21T00:27:21.188Z,16.19
2022-08-21T00:29:49.414Z,16.20
2022-08-21T00:32:24.035Z,16.19
2022-08-21T00:34:53.467Z,16.13
2022-08-21T00:37:22.243Z,16.11
2022-08-21T00:39:52.001Z,16.04
2022-08-21T00:42:21.322Z,15.96
2022-08-21T00:44:51.921Z,15.85
2022-08-21T00:47:21.337Z,15.71
2022-08-21T00:49:49.793Z,15.64
2022-08-21T00:52:23.421Z,15.56
2022-08-21T00:54:57.818Z,15.50
2022-08-21T00:57:32.516Z,15.45
2022-08-21T01:00:06.564Z,15.43
2022-08-21T01:02:36.196Z,15.40
2022-08-21T01:05:06.692Z,15.36
2022-08-21T01:07:35.124Z,15.29
2022-08-21T01:10:07.819Z,15.25
2022-08-21T01:12:37.661Z,15.18
2022-08-21T01:15:09.613Z,15.12
2022-08-21T01:17:39.519Z,15.12
2022-08-21T01:20:13.287Z,15.02
2022-08-21T01:22:43.119Z,15.04
2022-08-21T01:25:14.158Z,15.08
2022-08-21T01:27:42.998Z,15.00
2022-08-21T01:30:17.427Z,15.00
2022-08-21T01:32:46.186Z,14.96
2022-08-21T01:35:16.730Z,15.01
2022-08-21T01:37:47.429Z,15.00
2022-08-21T01:40:18.402Z,15.04
2022-08-21T01:42:48.009Z,15.03
2022-08-21T01:45:18.083Z,15.05
2022-08-21T01:47:46.780Z,15.04
2022-08-21T01:50:19.665Z,15.02
2022-08-21T01:52:51.165Z,14.99
2022-08-21T01:55:20.594Z,14.99
2022-08-21T01:57:50.523Z,15.02
2022-08-21T02:00:23.821Z,15.04
2022-08-21T02:02:53.351Z,15.08
2022-08-21T02:05:22.548Z,15.00
2022-08-21T02:07:55.370Z,14.85
2022-08-21T02:10:28.191Z,14.86
2022-08-21T02:12:57.722Z,14.90
2022-08-21T02:15:26.392Z,14.93
2022-08-21T02:17:58.702Z,14.87
2022-08-21T02:20:30.835Z,14.91
2022-08-21T02:23:01.273Z,14.90
2022-08-21T02:25:31.389Z,14.88
2022-08-21T02:28:01.942Z,14.96
2022-08-21T02:30:36.462Z,14.97
2022-08-21T02:33:04.819Z,14.90
2022-08-21T02:35:33.882Z,14.82
2022-08-21T02:38:08.511Z,14.84
2022-08-21T02:40:48.413Z,14.92
2022-08-21T02:43:20.833Z,14.95
2022-08-21T02:45:51.015Z,14.94
2022-08-21T02:48:23.573Z,14.89
2022-08-21T02:50:56.854Z,14.99
2022-08-21T02:53:27.798Z,14.94
2022-08-21T02:55:59.582Z,14.93
2022-08-21T02:58:32.262Z,14.87
2022-08-21T03:01:00.678Z,14.82
2022-08-21T03:03:30.378Z,14.81
2022-08-21T03:05:59.166Z,14.76
2022-08-21T03:08:28.928Z,14.81
2022-08-21T03:10:57.528Z,14.74
2022-08-21T03:13:25.854Z,14.69
2022-08-21T03:15:54.235Z,14.63
2022-08-21T03:18:23.206Z,14.59
2022-08-21T03:20:52.279Z,14.66
2022-08-21T03:23:20.682Z,14.68
2022-08-21T03:25:52.049Z,14.61
2022-08-21T03:28:24.658Z,14.55
2022-08-21T03:30:54.425Z,14.56
2022-08-21T03:33:23.705Z,14.42
2022-08-21T03:35:58.841Z,14.38
2022-08-21T03:38:28.117Z,14.44
2022-08-21T03:40:58.552Z,14.38
2022-08-21T03:43:27.581Z,14.32
2022-08-21T03:46:00.052Z,14.24
2022-08-21T03:48:28.710Z,14.25
2022-08-21T03:50:57.599Z,14.22
2022-08-21T03:53:26.623Z,14.20
2022-08-21T03:55:56.951Z,14.11
2022-08-21T03:58:28.620Z,14.12
2022-08-21T04:01:01.053Z,14.03
2022-08-21T04:03:30.389Z,14.11
2022-08-21T04:05:58.951Z,14.25
2022-08-21T04:08:27.722Z,14.20
2022-08-21T04:11:00.726Z,14.17
2022-08-21T04:13:29.887Z,14.21
2022-08-21T04:16:00.096Z,14.18
2022-08-21T04:18:28.526Z,14.15
2022-08-21T04:21:00.971Z,14.17
2022-08-21T04:23:30.478Z,14.15
2022-08-21T04:26:00.772Z,14.20
2022-08-21T04:28:30.447Z,14.17
2022-08-21T04:30:59.744Z,14.17
2022-08-21T04:33:28.350Z,14.16
2022-08-21T04:35:56.881Z,14.02
2022-08-21T04:38:25.593Z,13.85
2022-08-21T04:40:54.506Z,13.83
2022-08-21T04:43:24.458Z,13.99
2022-08-21T04:45:54.458Z,13.98
2022-08-21T04:48:25.401Z,13.91
2022-08-21T04:50:59.924Z,13.93
2022-08-21T04:53:35.786Z,13.84
2022-08-21T04:56:12.215Z,13.79
2022-08-21T04:58:44.712Z,13.78
2022-08-21T05:01:21.501Z,13.84
2022-08-21T05:03:53.054Z,13.90
2022-08-21T05:06:22.297Z,13.95
2022-08-21T05:08:57.129Z,13.92
2022-08-21T05:11:32.500Z,13.78
2022-08-21T05:14:02.538Z,13.92
2022-08-21T05:16:37.000Z,13.87
2022-08-21T05:19:07.461Z,13.92
2022-08-21T05:21:36.737Z,13.96
2022-08-21T05:24:05.721Z,14.00
2022-08-21T05:26:45.553Z,13.92
2022-08-21T05:29:18.298Z,13.92
2022-08-21T05:31:49.428Z,13.85
2022-08-21T05:34:24.282Z,14.08
2022-08-21T05:36:52.647Z,14.35
2022-08-21T05:39:21.228Z,14.50
2022-08-21T05:41:50.248Z,14.46
2022-08-21T05:44:20.472Z,14.51
2022-08-21T05:46:50.653Z,14.69
2022-08-21T05:49:19.436Z,14.89
2022-08-21T05:51:47.762Z,14.83
2022-08-21T05:54:16.545Z,15.00
2022-08-21T05:56:46.510Z,14.97
2022-08-21T05:59:14.996Z,15.10
2022-08-21T06:01:46.169Z,15.14
2022-08-21T06:04:15.139Z,15.43
2022-08-21T06:06:43.499Z,15.58
2022-08-21T06:09:11.844Z,16.02
2022-08-21T06:11:40.112Z,16.36
2022-08-21T06:14:08.738Z,16.72
2022-08-21T06:16:37.135Z,16.88
2022-08-21T06:19:06.816Z,17.15
2022-08-21T06:21:35.722Z,17.11
2022-08-21T06:24:05.432Z,16.68
2022-08-21T06:26:33.981Z,16.56
2022-08-21T06:29:02.347Z,16.23
2022-08-21T06:31:31.302Z,16.17
2022-08-21T06:34:00.006Z,16.14
2022-08-21T06:36:29.698Z,16.13
2022-08-21T06:38:58.147Z,16.06
2022-08-21T06:41:27.072Z,16.09
2022-08-21T06:43:57.234Z,16.08
2022-08-21T06:46:27.532Z,16.01
2022-08-21T06:48:56.714Z,16.15
2022-08-21T06:51:26.439Z,16.10
2022-08-21T06:53:58.817Z,16.26
2022-08-21T06:56:28.025Z,16.13
2022-08-21T06:58:56.377Z,16.34
2022-08-21T07:01:27.984Z,16.22
2022-08-21T07:03:56.629Z,16.41
2022-08-21T07:06:25.937Z,16.77
2022-08-21T07:08:55.707Z,16.72
2022-08-21T07:11:27.959Z,16.84
2022-08-21T07:13:57.572Z,16.85
2022-08-21T07:16:26.191Z,16.91
2022-08-21T07:18:54.489Z,16.88
2022-08-21T07:21:25.965Z,16.83
2022-08-21T07:23:56.140Z,17.07
2022-08-21T07:26:26.914Z,16.99
2022-08-21T07:28:55.982Z,16.76
2022-08-21T07:31:27.213Z,16.84
2022-08-21T07:33:56.196Z,16.84
2022-08-21T07:36:24.826Z,16.91
2022-08-21T07:38:53.256Z,17.01
2022-08-21T07:41:28.655Z,16.92
2022-08-21T07:43:58.484Z,16.75
2022-08-21T07:46:28.547Z,16.74
2022-08-21T07:48:57.248Z,16.96
2022-08-21T07:51:30.894Z,16.90
2022-08-21T07:54:00.754Z,16.80
2022-08-21T07:56:33.302Z,16.89
2022-08-21T07:59:03.674Z,16.83
2022-08-21T08:01:32.515Z,16.87
2022-08-21T08:04:00.976Z,16.86
2022-08-21T08:06:29.458Z,16.72
2022-08-21T08:08:57.867Z,16.73
2022-08-21T08:11:26.460Z,16.93
2022-08-21T08:13:58.192Z,17.15
2022-08-21T08:16:26.843Z,17.55
2022-08-21T08:18:56.492Z,18.11
2022-08-21T08:21:24.802Z,18.42
2022-08-21T08:23:53.236Z,18.24
2022-08-21T08:26:21.504Z,18.28
2022-08-21T08:28:49.783Z,18.42
2022-08-21T08:31:19.593Z,18.34
2022-08-21T08:33:47.966Z,18.21
2022-08-21T08:36:18.346Z,18.45
2022-08-21T08:38:49.365Z,18.35
2022-08-21T08:41:22.691Z,18.14
2022-08-21T08:43:55.769Z,18.09
2022-08-21T08:46:43.906Z,18.34
2022-08-21T08:49:21.366Z,18.73
2022-08-21T08:51:57.579Z,18.71
2022-08-21T08:54:34.400Z,18.60
2022-08-21T08:57:08.814Z,18.74
2022-08-21T08:59:43.798Z,18.99
2022-08-21T09:02:16.433Z,19.77
2022-08-21T09:04:47.616Z,21.04
2022-08-21T09:07:34.374Z,21.83
2022-08-21T09:10:16.358Z,20.99
2022-08-21T09:12:58.287Z,21.94
2022-08-21T09:15:34.818Z,22.85
2022-08-21T09:18:28.476Z,24.36
2022-08-21T09:21:12.260Z,25.49
2022-08-21T09:23:58.918Z,24.04
2022-08-21T09:26:34.349Z,23.80
2022-08-21T09:29:03.225Z,23.84
2022-08-21T09:31:38.481Z,24.92
2022-08-21T09:34:12.346Z,26.11
2022-08-21T09:36:45.176Z,26.71
2022-08-21T09:39:25.508Z,25.43
2022-08-21T09:42:00.888Z,26.26
2022-08-21T09:44:33.320Z,26.74
2022-08-21T09:47:01.986Z,26.35
2022-08-21T09:49:35.470Z,26.16
2022-08-21T09:52:08.750Z,26.74
2022-08-21T09:54:42.426Z,27.44
2022-08-21T09:57:50.223Z,27.81
2022-08-21T10:00:27.956Z,25.00
2022-08-21T10:02:56.338Z,25.16
2022-08-21T10:05:29.294Z,26.23
2022-08-21T10:07:57.633Z,26.94
2022-08-21T10:10:31.673Z,27.78
2022-08-21T10:13:14.860Z,26.75
2022-08-21T10:16:02.428Z,26.98
2022-08-21T10:18:41.049Z,27.92
2022-08-21T10:21:22.962Z,28.84
2022-08-21T10:24:11.800Z,29.24
2022-08-21T10:27:16.602Z,26.40
2022-08-21T10:29:57.901Z,24.28
2022-08-21T10:33:09.503Z,23.30
2022-08-21T10:35:47.899Z,23.13
2022-08-21T10:39:02.742Z,22.94
2022-08-21T10:42:04.517Z,22.65
2022-08-21T10:44:47.178Z,22.85
2022-08-21T10:47:25.053Z,22.27
2022-08-21T10:50:12.915Z,22.42
2022-08-21T10:53:10.561Z,24.47
2022-08-21T10:55:46.825Z,24.33
2022-08-21T10:58:23.221Z,24.07
2022-08-21T11:00:59.212Z,25.14
2022-08-21T11:03:37.745Z,27.12
2022-08-21T11:06:15.556Z,28.03
2022-08-21T11:08:47.886Z,27.56
2022-08-21T11:11:24.994Z,25.33
2022-08-21T11:14:04.946Z,25.60
2022-08-21T11:16:42.437Z,25.08
2022-08-21T11:19:23.377Z,24.41
2022-08-21T11:22:01.226Z,22.99
2022-08-21T11:24:37.788Z,22.54
2022-08-21T11:27:23.229Z,21.91
2022-08-21T11:29:55.972Z,21.59
2022-08-21T11:33:02.977Z,21.46
2022-08-21T11:35:41.579Z,21.13
2022-08-21T11:38:28.157Z,20.75
2022-08-21T11:41:18.769Z,20.57
2022-08-21T11:44:02.400Z,20.35
2022-08-21T11:46:42.819Z,20.35
2022-08-21T11:49:35.504Z,20.39
2022-08-21T11:52:18.591Z,22.67
2022-08-21T11:54:55.174Z,24.89
2022-08-21T11:57:30.810Z,26.94
2022-08-21T12:00:09.549Z,28.06
2022-08-21T12:02:48.598Z,28.93
2022-08-21T12:05:31.895Z,29.03
2022-08-21T12:08:12.592Z,28.97
2022-08-21T12:10:48.419Z,30.05
2022-08-21T12:13:39.841Z,30.00
2022-08-21T12:16:16.425Z,29.50
2022-08-21T12:18:47.045Z,29.51
2022-08-21T12:21:30.045Z,30.58
2022-08-21T12:24:22.816Z,29.96
2022-08-21T12:27:00.396Z,30.35
2022-08-21T12:29:33.807Z,30.88
2022-08-21T12:32:25.815Z,30.78
2022-08-21T12:35:03.596Z,30.72
2022-08-21T12:37:42.228Z,29.95
2022-08-21T12:40:24.137Z,30.07
2022-08-21T12:43:00.245Z,30.39
2022-08-21T12:45:35.710Z,31.69
2022-08-21T12:48:15.128Z,31.87
2022-08-21T12:50:50.476Z,31.29
2022-08-21T12:53:31.642Z,30.75
2022-08-21T12:56:05.337Z,29.71
2022-08-21T12:58:34.937Z,29.70
2022-08-21T13:01:08.961Z,30.12
2022-08-21T13:03:41.615Z,28.78
2022-08-21T13:06:19.719Z,28.81
2022-08-21T13:08:59.774Z,29.50
2022-08-21T13:11:33.666Z,29.85
2022-08-21T13:14:06.247Z,29.95
2022-08-21T13:16:37.493Z,30.22
2022-08-21T13:19:10.358Z,30.48
2022-08-21T13:21:45.101Z,29.58
2022-08-21T13:24:41.362Z,30.31
2022-08-21T13:27:26.389Z,28.75
2022-08-21T13:30:12.305Z,30.01
2022-08-21T13:32:46.491Z,29.30
2022-08-21T13:35:24.384Z,29.91
2022-08-21T13:37:54.924Z,30.32
2022-08-21T13:40:30.766Z,29.04
2022-08-21T13:43:02.344Z,29.56
2022-08-21T13:45:35.385Z,30.29
2022-08-21T13:48:06.930Z,30.20
2022-08-21T13:50:41.678Z,30.07
2022-08-21T13:53:25.583Z,29.16
2022-08-21T13:55:59.953Z,29.06
2022-08-21T13:58:34.439Z,28.95
2022-08-21T14:01:06.587Z,28.99
2022-08-21T14:03:41.157Z,27.67
2022-08-21T14:06:23.643Z,28.48
2022-08-21T14:08:57.610Z,29.03
2022-08-21T14:11:28.773Z,29.11
2022-08-21T14:14:04.899Z,28.26
2022-08-21T14:16:48.014Z,27.76
2022-08-21T14:19:25.777Z,27.92
2022-08-21T14:21:56.968Z,27.72
2022-08-21T14:24:35.838Z,28.03
2022-08-21T14:27:10.103Z,29.16
2022-08-21T14:29:43.849Z,28.92
2022-08-21T14:32:21.880Z,28.98
2022-08-21T14:34:55.153Z,29.82
2022-08-21T14:37:28.625Z,29.52
2022-08-21T14:39:58.384Z,30.01
2022-08-21T14:42:28.794Z,29.13
2022-08-21T14:45:04.163Z,29.18
2022-08-21T14:47:33.733Z,28.98
2022-08-21T14:50:02.690Z,28.91
2022-08-21T14:52:33.572Z,29.15
2022-08-21T14:55:02.969Z,28.34
2022-08-21T14:57:34.229Z,28.56
2022-08-21T15:00:04.018Z,29.03
2022-08-21T15:02:33.214Z,28.54
2022-08-21T15:05:02.691Z,27.78
2022-08-21T15:07:33.551Z,27.12
2022-08-21T15:10:02.714Z,28.14
2022-08-21T15:12:32.426Z,29.08
2022-08-21T15:15:01.723Z,28.94
2022-08-21T15:17:31.234Z,29.36
2022-08-21T15:20:00.455Z,29.60
2022-08-21T15:22:29.422Z,29.45
2022-08-21T15:24:59.065Z,29.33
2022-08-21T15:27:27.391Z,28.54
2022-08-21T15:29:56.902Z,27.74
2022-08-21T15:32:30.229Z,27.14
2022-08-21T15:34:59.633Z,27.79
2022-08-21T15:37:28.083Z,26.20
2022-08-21T15:39:56.474Z,26.07
2022-08-21T15:42:28.523Z,25.85
2022-08-21T15:44:59.062Z,26.19
2022-08-21T15:47:31.588Z,26.80
2022-08-21T15:50:00.219Z,26.83
2022-08-21T15:52:28.853Z,26.76
2022-08-21T15:54:57.180Z,26.69
2022-08-21T15:57:28.064Z,26.79
2022-08-21T16:00:06.410Z,26.97
2022-08-21T16:02:44.862Z,26.06
2022-08-21T16:05:17.342Z,25.78
2022-08-21T16:07:47.248Z,25.75
2022-08-21T16:10:17.799Z,25.69
2022-08-21T16:12:54.317Z,26.01
2022-08-21T16:15:24.472Z,26.32
2022-08-21T16:17:56.172Z,25.77
2022-08-21T16:20:29.368Z,25.30
2022-08-21T16:23:00.868Z,25.39
2022-08-21T16:25:30.706Z,25.03
2022-08-21T16:28:07.575Z,24.88
2022-08-21T16:30:39.840Z,24.87
2022-08-21T16:33:15.491Z,24.87
2022-08-21T16:35:44.617Z,24.58
2022-08-21T16:38:14.383Z,24.52
2022-08-21T16:40:43.600Z,24.60
2022-08-21T16:43:14.652Z,24.55
2022-08-21T16:45:45.609Z,24.61
2022-08-21T16:48:14.700Z,24.61
2022-08-21T16:50:47.884Z,24.47
2022-08-21T16:53:19.744Z,24.30
2022-08-21T16:55:50.718Z,24.20
2022-08-21T16:58:27.589Z,24.36
2022-08-21T17:00:57.870Z,24.31
2022-08-21T17:03:35.332Z,24.31
2022-08-21T17:06:04.897Z,24.16
2022-08-21T17:08:35.217Z,24.07
2022-08-21T17:11:08.270Z,24.07
2022-08-21T17:13:40.010Z,23.75
2022-08-21T17:16:09.269Z,23.79
2022-08-21T17:18:38.369Z,23.73
2022-08-21T17:21:08.277Z,23.61
2022-08-21T17:23:37.445Z,23.45
2022-08-21T17:26:12.650Z,23.30
2022-08-21T17:28:48.728Z,23.11
2022-08-21T17:31:25.629Z,22.89
2022-08-21T17:33:57.450Z,22.72
2022-08-21T17:36:33.416Z,22.43
2022-08-21T17:39:05.885Z,22.12
2022-08-21T17:41:36.632Z,21.91
2022-08-21T17:44:16.538Z,21.66
2022-08-21T17:46:48.523Z,21.44
2022-08-21T17:49:18.129Z,21.30
2022-08-21T17:51:47.921Z,21.16
2022-08-21T17:54:17.434Z,20.87
2022-08-21T17:56:47.686Z,20.58
2022-08-21T17:59:18.879Z,20.40
2022-08-21T18:01:48.607Z,20.18
2022-08-21T18:04:21.560Z,19.99
2022-08-21T18:06:52.660Z,19.77
2022-08-21T18:09:23.292Z,19.33
2022-08-21T18:11:53.789Z,19.02
2022-08-21T18:14:31.270Z,18.74
2022-08-21T18:17:02.623Z,18.49
2022-08-21T18:19:33.055Z,18.21
2022-08-21T18:22:07.130Z,18.00
2022-08-21T18:24:41.547Z,17.88
2022-08-21T18:27:13.610Z,17.81
2022-08-21T18:29:47.748Z,17.77
2022-08-21T18:32:31.069Z,17.51
2022-08-21T18:35:04.036Z,17.36
2022-08-21T18:37:34.121Z,17.25
2022-08-21T18:40:03.699Z,17.29
2022-08-21T18:42:47.894Z,17.34
2022-08-21T18:45:27.802Z,17.47
2022-08-21T18:48:04.412Z,17.58
2022-08-21T18:50:36.608Z,17.57
2022-08-21T18:53:15.930Z,17.40
2022-08-21T18:55:54.313Z,17.28
2022-08-21T18:58:28.448Z,17.19
2022-08-21T19:01:04.698Z,17.07
2022-08-21T19:03:38.030Z,16.94
2022-08-21T19:09:01.736Z,16.73
2022-08-21T19:11:31.939Z,16.71
2022-08-21T19:14:04.439Z,16.70
2022-08-21T19:16:42.081Z,16.58
2022-08-21T19:19:20.326Z,16.47
2022-08-21T19:21:51.144Z,16.39
2022-08-21T19:24:26.356Z,16.42
2022-08-21T19:26:58.797Z,16.43
2022-08-21T19:29:35.099Z,16.34
2022-08-21T19:32:09.297Z,16.43
2022-08-21T19:34:43.219Z,16.48
2022-08-21T19:37:17.633Z,16.43
2022-08-21T19:39:50.270Z,16.19
2022-08-21T19:45:13.088Z,16.08
2022-08-21T19:47:51.370Z,16.02
2022-08-21T19:50:23.063Z,16.00
2022-08-21T19:52:53.839Z,15.96
2022-08-21T19:55:24.807Z,15.88
2022-08-21T19:57:56.518Z,15.82
2022-08-21T20:00:27.635Z,15.75
2022-08-21T20:02:59.629Z,15.73
2022-08-21T20:08:21.487Z,15.68
2022-08-21T20:10:52.329Z,15.65
2022-08-21T20:13:23.343Z,15.58
2022-08-21T20:15:53.863Z,15.64
2022-08-21T20:21:44.035Z,15.42
2022-08-21T20:24:16.561Z,15.43
2022-08-21T20:26:49.431Z,15.37
2022-08-21T20:32:12.530Z,15.43
2022-08-21T20:34:46.072Z,15.35
2022-08-21T20:40:15.934Z,15.21
2022-08-21T20:42:54.338Z,15.19
2022-08-21T20:45:28.518Z,15.19
2022-08-21T20:48:05.202Z,15.18
2022-08-21T20:50:44.629Z,15.16
2022-08-21T20:53:21.481Z,15.15
2022-08-21T20:55:54.165Z,15.11
2022-08-21T20:58:36.446Z,15.19
2022-08-21T21:01:10.775Z,15.23
2022-08-21T21:03:47.979Z,15.15
2022-08-21T21:06:25.784Z,15.12
2022-08-21T21:09:02.908Z,15.05
2022-08-21T21:11:39.733Z,15.01
2022-08-21T21:14:18.224Z,15.00
2022-08-21T21:16:53.748Z,15.02
2022-08-21T21:19:37.214Z,15.11
2022-08-21T21:22:13.747Z,15.06
2022-08-21T21:24:54.081Z,15.01
2022-08-21T21:27:36.063Z,14.99
2022-08-21T21:30:12.438Z,14.86
2022-08-21T21:32:43.300Z,14.81
2022-08-21T21:35:17.420Z,14.68
2022-08-21T21:38:12.722Z,14.58
2022-08-21T21:40:57.281Z,14.54
2022-08-21T21:43:48.146Z,14.68
2022-08-21T21:46:38.009Z,14.81
2022-08-21T21:49:35.186Z,14.93
2022-08-21T21:52:22.816Z,14.86
2022-08-21T21:55:26.684Z,14.92
2022-08-21T21:58:25.043Z,15.17
2022-08-21T22:01:04.140Z,15.11
2022-08-21T22:03:43.045Z,15.19
2022-08-21T22:06:24.954Z,15.27
2022-08-21T22:09:09.318Z,15.29
2022-08-21T22:12:03.934Z,15.07
2022-08-21T22:14:38.307Z,14.81
2022-08-21T22:17:24.109Z,14.60
2022-08-21T22:19:57.428Z,14.48
2022-08-21T22:22:30.481Z,14.36
2022-08-21T22:25:07.418Z,14.31
2022-08-21T22:27:41.900Z,14.21
2022-08-21T22:30:17.476Z,14.15
2022-08-21T22:35:39.393Z,14.03
2022-08-21T22:38:33.301Z,14.04
2022-08-21T22:41:17.498Z,14.19
2022-08-21T22:43:57.339Z,14.38
2022-08-21T22:46:35.161Z,14.42
2022-08-21T22:49:12.341Z,14.51
2022-08-21T22:51:44.965Z,14.54
2022-08-21T22:54:24.017Z,14.57
2022-08-21T22:57:02.931Z,14.72
2022-08-21T22:59:37.628Z,14.66
2022-08-21T23:02:25.367Z,14.44
2022-08-21T23:05:00.669Z,14.36
2022-08-21T23:07:43.029Z,14.20
2022-08-21T23:10:26.511Z,13.98
2022-08-21T23:13:09.309Z,13.92
2022-08-21T23:15:54.794Z,13.98
2022-08-21T23:18:39.401Z,14.06
2022-08-21T23:21:21.174Z,14.01
2022-08-21T23:24:19.234Z,13.92
2022-08-21T23:27:07.893Z,13.80
2022-08-21T23:29:52.050Z,13.82
2022-08-21T23:36:06.598Z,14.04
2022-08-21T23:39:03.570Z,14.02
2022-08-21T23:41:45.270Z,14.02
2022-08-21T23:44:41.062Z,14.02
2022-08-21T23:47:41.413Z,14.07
2022-08-21T23:50:17.814Z,14.08
2022-08-21T23:53:04.962Z,14.07
2022-08-21T23:56:12.223Z,14.15
2022-08-21T23:58:50.344Z,14.27
